createdAt,value
2019-05-01T00:01:28.110Z,38.03
2019-05-01T00:04:07.087Z,36.37
2019-05-01T00:06:43.414Z,38.17
2019-05-01T00:09:11.896Z,36.20
2019-05-01T00:11:40.465Z,36.53
2019-05-01T00:14:09.171Z,37.50
2019-05-01T00:16:37.790Z,35.73
2019-05-01T00:19:06.462Z,38.07
2019-05-01T00:21:35.146Z,34.53
2019-05-01T00:24:03.632Z,37.43
2019-05-01T00:26:32.279Z,35.40
2019-05-01T00:29:00.818Z,35.90
2019-05-01T00:31:29.494Z,36.20
2019-05-01T00:33:58.055Z,35.13
2019-05-01T00:36:26.676Z,35.07
2019-05-01T00:38:55.187Z,34.13
2019-05-01T00:41:23.754Z,36.30
2019-05-01T00:43:52.254Z,34.70
2019-05-01T00:46:20.791Z,33.97
2019-05-01T00:48:49.478Z,32.87
2019-05-01T00:51:18.173Z,31.93
2019-05-01T00:53:46.950Z,33.60
2019-05-01T00:56:35.593Z,30.87
2019-05-01T00:59:22.245Z,31.27
2019-05-01T01:02:08.922Z,31.83
2019-05-01T01:04:37.589Z,29.80
2019-05-01T01:07:06.187Z,30.07
2019-05-01T01:09:34.966Z,29.60
2019-05-01T01:12:03.564Z,30.00
2019-05-01T01:14:32.149Z,29.47
2019-05-01T01:17:00.734Z,29.50
2019-05-01T01:19:29.322Z,30.03
2019-05-01T01:21:58.004Z,29.30
2019-05-01T01:24:26.603Z,28.93
2019-05-01T01:26:55.352Z,29.67
2019-05-01T01:29:23.831Z,30.80
2019-05-01T01:31:52.362Z,30.07
2019-05-01T01:34:20.916Z,29.27
2019-05-01T01:36:49.424Z,29.43
2019-05-01T01:39:17.943Z,29.83
2019-05-01T01:41:46.961Z,29.27
2019-05-01T01:44:23.054Z,28.23
2019-05-01T01:46:53.260Z,27.47
2019-05-01T01:49:22.003Z,27.83
2019-05-01T01:51:50.736Z,29.00
2019-05-01T01:54:19.295Z,27.87
2019-05-01T01:56:47.776Z,28.33
2019-05-01T01:59:16.400Z,28.57
2019-05-01T02:01:46.539Z,27.53
2019-05-01T02:04:16.721Z,28.50
2019-05-01T02:06:45.343Z,27.30
2019-05-01T02:09:13.974Z,28.47
2019-05-01T02:11:42.618Z,28.83
2019-05-01T02:14:11.111Z,29.27
2019-05-01T02:16:39.734Z,28.77
2019-05-01T02:19:09.656Z,29.17
2019-05-01T02:21:38.167Z,28.77
2019-05-01T02:24:06.654Z,28.90
2019-05-01T02:26:37.003Z,28.60
2019-05-01T02:29:07.354Z,28.50
2019-05-01T02:31:40.379Z,30.00
2019-05-01T02:34:08.914Z,28.00
2019-05-01T02:36:37.604Z,29.87
2019-05-01T02:39:08.149Z,28.67
2019-05-01T02:41:36.615Z,28.57
2019-05-01T02:44:07.881Z,28.73
2019-05-01T02:46:36.613Z,29.73
2019-05-01T02:49:28.334Z,29.17
2019-05-01T02:51:56.877Z,29.40
2019-05-01T02:54:25.440Z,27.67
2019-05-01T02:57:07.396Z,29.07
2019-05-01T02:59:36.022Z,28.80
2019-05-01T03:02:04.691Z,28.80
2019-05-01T03:04:33.223Z,27.17
2019-05-01T03:07:02.496Z,28.13
2019-05-01T03:09:31.035Z,26.53
2019-05-01T03:11:59.660Z,26.53
2019-05-01T03:14:28.654Z,26.47
2019-05-01T03:16:57.749Z,26.20
2019-05-01T03:19:30.753Z,26.07
2019-05-01T03:22:01.416Z,25.87
2019-05-01T03:24:30.381Z,24.60
2019-05-01T03:26:58.966Z,27.13
2019-05-01T03:29:27.663Z,26.53
2019-05-01T03:32:19.003Z,25.93
2019-05-01T03:34:51.869Z,24.60
2019-05-01T03:37:16.017Z,23.27
2019-05-01T03:39:44.492Z,24.83
2019-05-01T03:42:12.961Z,25.10
2019-05-01T03:44:41.674Z,23.97
2019-05-01T03:47:10.155Z,31.47
2019-05-01T03:49:38.663Z,24.47
2019-05-01T03:52:07.121Z,23.17
2019-05-01T03:54:35.661Z,23.73
2019-05-01T03:57:04.276Z,24.50
2019-05-01T03:59:32.715Z,22.47
2019-05-01T04:02:08.796Z,22.57
2019-05-01T04:04:37.392Z,24.23
2019-05-01T04:07:05.974Z,23.03
2019-05-01T04:09:34.681Z,22.90
2019-05-01T04:12:03.304Z,23.53
2019-05-01T04:14:31.864Z,24.93
2019-05-01T04:17:07.970Z,24.70
2019-05-01T04:19:36.530Z,24.13
2019-05-01T04:22:13.087Z,24.50
2019-05-01T04:24:42.239Z,25.63
2019-05-01T04:27:12.325Z,23.90
2019-05-01T04:29:42.467Z,23.23
2019-05-01T04:32:12.609Z,25.13
2019-05-01T04:34:45.655Z,24.53
2019-05-01T04:37:15.776Z,23.73
2019-05-01T04:39:44.232Z,25.40
2019-05-01T04:42:12.878Z,24.40
2019-05-01T04:44:41.637Z,25.33
2019-05-01T04:47:10.143Z,25.67
2019-05-01T04:49:38.739Z,25.20
2019-05-01T04:52:07.243Z,25.87
2019-05-01T04:54:35.701Z,26.47
2019-05-01T04:57:04.241Z,25.60
2019-05-01T04:59:32.821Z,26.17
2019-05-01T05:02:02.946Z,26.30
2019-05-01T05:04:31.775Z,26.83
2019-05-01T05:07:00.913Z,26.87
2019-05-01T05:09:43.164Z,25.90
2019-05-01T05:12:19.069Z,26.20
2019-05-01T05:15:05.805Z,26.70
2019-05-01T05:17:34.327Z,26.80
2019-05-01T05:20:03.527Z,25.57
2019-05-01T05:22:32.092Z,28.17
2019-05-01T05:25:00.750Z,26.07
2019-05-01T05:27:29.290Z,26.57
2019-05-01T05:29:57.754Z,27.10
2019-05-01T05:32:27.808Z,26.63
2019-05-01T05:34:57.431Z,25.93
2019-05-01T05:37:32.392Z,24.93
2019-05-01T05:40:01.057Z,27.50
2019-05-01T05:42:29.884Z,33.57
2019-05-01T05:44:58.358Z,39.07
2019-05-01T05:47:26.917Z,27.47
2019-05-01T05:49:55.560Z,29.50
2019-05-01T05:52:25.686Z,26.33
2019-05-01T05:55:11.924Z,26.37
2019-05-01T05:57:42.061Z,26.17
2019-05-01T06:00:14.945Z,25.23
2019-05-01T06:02:54.153Z,25.97
2019-05-01T06:05:30.211Z,28.43
2019-05-01T06:08:15.246Z,27.27
2019-05-01T06:10:53.697Z,28.53
2019-05-01T06:13:32.676Z,25.97
2019-05-01T06:16:05.763Z,26.10
2019-05-01T06:18:39.417Z,25.73
2019-05-01T06:21:12.836Z,25.93
2019-05-01T06:23:45.360Z,26.20
2019-05-01T06:26:27.711Z,25.57
2019-05-01T06:29:00.858Z,26.80
2019-05-01T06:31:27.905Z,26.70
2019-05-01T06:33:56.379Z,26.70
2019-05-01T06:36:24.982Z,28.73
2019-05-01T06:38:53.848Z,29.30
2019-05-01T06:41:22.493Z,31.20
2019-05-01T06:43:57.157Z,26.43
2019-05-01T06:46:27.385Z,27.13
2019-05-01T06:48:59.761Z,27.10
2019-05-01T06:51:35.744Z,27.13
2019-05-01T06:54:16.437Z,28.90
2019-05-01T06:56:45.220Z,27.40
2019-05-01T06:59:13.832Z,29.70
2019-05-01T07:01:42.477Z,27.67
2019-05-01T07:04:14.014Z,30.97
2019-05-01T07:06:41.624Z,27.93
2019-05-01T07:09:11.816Z,27.97
2019-05-01T07:11:42.299Z,30.47
2019-05-01T07:14:15.484Z,31.27
2019-05-01T07:16:41.225Z,30.53
2019-05-01T07:19:10.570Z,32.47
2019-05-01T07:21:39.274Z,32.80
2019-05-01T07:24:07.837Z,30.17
2019-05-01T07:26:36.388Z,33.50
2019-05-01T07:29:09.901Z,34.37
2019-05-01T07:31:36.737Z,33.60
2019-05-01T07:34:16.002Z,36.53
2019-05-01T07:36:35.679Z,35.50
2019-05-01T07:39:09.933Z,34.23
2019-05-01T07:41:37.674Z,38.23
2019-05-01T07:44:10.951Z,38.73
2019-05-01T07:46:48.807Z,38.23
2019-05-01T07:49:17.930Z,34.60
2019-05-01T07:51:51.418Z,35.33
2019-05-01T07:54:20.299Z,34.60
2019-05-01T07:56:48.891Z,34.60
2019-05-01T07:59:17.413Z,37.10
2019-05-01T08:01:49.851Z,37.10
2019-05-01T08:04:18.498Z,37.07
2019-05-01T08:06:52.068Z,38.37
2019-05-01T08:09:18.341Z,35.43
2019-05-01T08:11:48.503Z,36.87
2019-05-01T08:14:18.663Z,38.07
2019-05-01T08:16:47.326Z,42.50
2019-05-01T08:19:20.614Z,37.07
2019-05-01T08:22:05.899Z,37.13
2019-05-01T08:24:34.970Z,35.77
2019-05-01T08:27:03.506Z,36.67
2019-05-01T08:29:49.955Z,35.93
2019-05-01T08:32:26.187Z,35.90
2019-05-01T08:35:00.528Z,37.80
2019-05-01T08:37:27.185Z,37.63
2019-05-01T08:39:57.454Z,38.73
2019-05-01T08:42:26.138Z,38.50
2019-05-01T08:45:06.813Z,38.27
2019-05-01T08:47:34.757Z,42.47
2019-05-01T08:50:09.215Z,42.73
2019-05-01T08:52:37.847Z,42.10
2019-05-01T08:55:09.347Z,42.23
2019-05-01T08:57:39.496Z,37.17
2019-05-01T09:00:08.704Z,36.37
2019-05-01T09:02:41.763Z,38.70
2019-05-01T09:05:27.855Z,38.43
2019-05-01T09:07:39.996Z,45.87
2019-05-01T09:10:09.332Z,37.53
2019-05-01T09:12:38.462Z,44.30
2019-05-01T09:15:12.784Z,43.03
2019-05-01T09:17:39.273Z,45.73
2019-05-01T09:20:08.173Z,40.30
2019-05-01T09:22:36.861Z,39.40
2019-05-01T09:25:06.716Z,39.00
2019-05-01T09:27:43.437Z,38.60
2019-05-01T09:30:26.820Z,40.43
2019-05-01T09:32:55.839Z,37.30
2019-05-01T09:35:24.654Z,39.93
2019-05-01T09:37:53.662Z,43.43
2019-05-01T09:40:22.648Z,38.77
2019-05-01T09:42:54.691Z,68.97
2019-05-01T09:45:21.890Z,41.40
2019-05-01T09:47:50.723Z,44.40
2019-05-01T09:50:19.376Z,51.07
2019-05-01T09:52:49.791Z,41.97
2019-05-01T09:55:23.022Z,39.57
2019-05-01T09:57:50.587Z,38.70
2019-05-01T10:00:30.250Z,45.03
2019-05-01T10:02:59.271Z,53.20
2019-05-01T10:05:29.214Z,47.87
2019-05-01T10:08:00.127Z,45.53
2019-05-01T10:10:29.366Z,52.27
2019-05-01T10:12:59.341Z,48.47
2019-05-01T10:15:28.214Z,50.13
2019-05-01T10:17:57.208Z,44.83
2019-05-01T10:20:25.901Z,46.47
2019-05-01T10:22:54.804Z,46.77
2019-05-01T10:25:23.967Z,52.10
2019-05-01T10:28:00.422Z,43.43
2019-05-01T10:30:36.268Z,44.00
2019-05-01T10:33:06.108Z,43.63
2019-05-01T10:35:42.871Z,43.20
2019-05-01T10:38:09.507Z,41.53
2019-05-01T10:40:37.013Z,41.70
2019-05-01T10:43:05.841Z,47.57
2019-05-01T10:45:35.079Z,45.87
2019-05-01T10:48:03.960Z,43.80
2019-05-01T10:50:32.685Z,42.87
2019-05-01T10:53:01.550Z,47.67
2019-05-01T10:55:30.186Z,49.97
2019-05-01T10:57:58.909Z,50.67
2019-05-01T11:00:27.542Z,47.80
2019-05-01T11:02:56.215Z,44.87
2019-05-01T11:05:24.895Z,42.23
2019-05-01T11:07:53.615Z,44.07
2019-05-01T11:10:22.197Z,49.57
2019-05-01T11:12:50.735Z,46.20
2019-05-01T11:15:19.402Z,51.40
2019-05-01T11:17:48.176Z,67.10
2019-05-01T11:20:18.173Z,47.60
2019-05-01T11:22:47.239Z,49.27
2019-05-01T11:25:17.946Z,53.77
2019-05-01T11:27:46.789Z,47.80
2019-05-01T11:30:15.880Z,43.87
2019-05-01T11:32:48.959Z,44.13
2019-05-01T11:35:23.465Z,42.67
2019-05-01T11:37:56.555Z,45.67
2019-05-01T11:40:32.958Z,43.80
2019-05-01T11:43:02.785Z,44.97
2019-05-01T11:45:34.345Z,43.70
2019-05-01T11:48:08.301Z,43.77
2019-05-01T11:50:37.475Z,51.37
2019-05-01T11:53:06.226Z,41.90
2019-05-01T11:55:35.218Z,45.63
2019-05-01T11:58:03.893Z,46.30
2019-05-01T12:00:35.395Z,46.57
2019-05-01T12:03:04.203Z,47.90
2019-05-01T12:05:33.009Z,44.67
2019-05-01T12:08:02.450Z,47.33
2019-05-01T12:10:31.472Z,48.53
2019-05-01T12:13:02.256Z,49.17
2019-05-01T12:15:31.032Z,48.67
2019-05-01T12:17:59.965Z,48.63
2019-05-01T12:20:28.752Z,53.00
2019-05-01T12:22:57.894Z,45.57
2019-05-01T12:25:26.708Z,47.27
2019-05-01T12:27:55.456Z,45.30
2019-05-01T12:30:24.195Z,46.23
2019-05-01T12:32:52.946Z,47.40
2019-05-01T12:35:21.707Z,46.50
2019-05-01T12:37:51.514Z,45.77
2019-05-01T12:40:20.374Z,46.47
2019-05-01T12:42:49.264Z,46.20
2019-05-01T12:45:17.966Z,52.00
2019-05-01T12:47:54.518Z,48.97
2019-05-01T12:50:23.145Z,48.77
2019-05-01T12:52:59.670Z,48.40
2019-05-01T12:55:34.503Z,50.27
2019-05-01T12:58:03.171Z,50.03
2019-05-01T13:00:41.129Z,47.70
2019-05-01T13:03:09.980Z,51.93
2019-05-01T13:05:38.690Z,50.73
2019-05-01T13:08:07.765Z,50.10
2019-05-01T13:10:37.790Z,52.13
2019-05-01T13:13:06.784Z,52.00
2019-05-01T13:15:35.590Z,48.48
2019-05-01T13:18:04.760Z,55.97
2019-05-01T13:20:33.736Z,52.40
2019-05-01T13:23:02.736Z,50.73
2019-05-01T13:25:31.943Z,50.67
2019-05-01T13:28:19.126Z,49.03
2019-05-01T13:30:58.626Z,53.87
2019-05-01T13:33:27.472Z,56.17
2019-05-01T13:35:56.565Z,65.17
2019-05-01T13:38:25.469Z,56.30
2019-05-01T13:40:56.726Z,52.27
2019-05-01T13:43:25.340Z,56.10
2019-05-01T13:45:54.250Z,49.33
2019-05-01T13:48:23.180Z,47.83
2019-05-01T13:50:53.675Z,49.83
2019-05-01T13:53:25.158Z,48.60
2019-05-01T13:55:53.969Z,49.43
2019-05-01T13:58:22.898Z,51.53
2019-05-01T14:00:51.567Z,54.20
2019-05-01T14:03:20.786Z,51.53
2019-05-01T14:05:49.675Z,51.90
2019-05-01T14:08:18.493Z,50.87
2019-05-01T14:10:47.454Z,53.03
2019-05-01T14:13:16.228Z,58.97
2019-05-01T14:15:44.769Z,54.20
2019-05-01T14:18:14.167Z,54.33
2019-05-01T14:20:44.566Z,51.97
2019-05-01T14:23:30.197Z,50.10
2019-05-01T14:26:06.001Z,52.53
2019-05-01T14:28:37.573Z,50.23
2019-05-01T14:31:07.248Z,50.57
2019-05-01T14:33:36.237Z,50.97
2019-05-01T14:36:05.183Z,50.33
2019-05-01T14:38:35.568Z,52.13
2019-05-01T14:41:04.553Z,50.27
2019-05-01T14:43:33.615Z,59.10
2019-05-01T14:46:02.746Z,50.40
2019-05-01T14:48:31.324Z,50.77
2019-05-01T14:51:00.462Z,50.63
2019-05-01T14:53:29.347Z,49.77
2019-05-01T14:55:58.198Z,49.83
2019-05-01T14:58:27.169Z,53.77
2019-05-01T15:00:56.297Z,53.70
2019-05-01T15:03:25.083Z,57.57
2019-05-01T15:05:53.748Z,54.87
2019-05-01T15:08:22.787Z,57.53
2019-05-01T15:10:51.492Z,56.03
2019-05-01T15:13:36.869Z,55.70
2019-05-01T15:16:18.805Z,59.77
2019-05-01T15:19:04.642Z,62.63
2019-05-01T15:21:33.501Z,69.77
2019-05-01T15:24:02.146Z,61.23
2019-05-01T15:26:30.784Z,62.23
2019-05-01T15:28:59.750Z,65.30
2019-05-01T15:31:28.537Z,61.43
2019-05-01T15:33:57.527Z,62.80
2019-05-01T15:36:26.495Z,63.97
2019-05-01T15:38:55.356Z,60.87
2019-05-01T15:41:31.762Z,63.73
2019-05-01T15:44:04.839Z,72.43
2019-05-01T15:46:35.154Z,62.07
2019-05-01T15:49:03.868Z,63.00
2019-05-01T15:51:32.642Z,65.50
2019-05-01T15:54:01.343Z,62.03
2019-05-01T15:56:30.124Z,60.20
2019-05-01T15:58:58.595Z,61.07
2019-05-01T16:01:27.292Z,70.17
2019-05-01T16:03:56.072Z,62.33
2019-05-01T16:06:24.957Z,63.20
2019-05-01T16:08:53.982Z,62.37
2019-05-01T16:11:33.413Z,60.73
2019-05-01T16:14:02.543Z,61.80
2019-05-01T16:16:31.278Z,61.67
2019-05-01T16:18:59.959Z,62.33
2019-05-01T16:21:28.636Z,60.80
2019-05-01T16:23:57.428Z,58.37
2019-05-01T16:26:25.983Z,59.77
2019-05-01T16:28:54.801Z,57.87
2019-05-01T16:31:23.784Z,60.03
2019-05-01T16:33:52.394Z,57.83
2019-05-01T16:36:23.846Z,62.10
2019-05-01T16:39:00.045Z,57.53
2019-05-01T16:41:30.408Z,60.23
2019-05-01T16:44:00.047Z,56.73
2019-05-01T16:46:28.795Z,57.83
2019-05-01T16:48:57.457Z,56.10
2019-05-01T16:51:26.064Z,54.90
2019-05-01T16:53:54.677Z,53.27
2019-05-01T16:56:23.542Z,54.37
2019-05-01T16:58:52.228Z,51.63
2019-05-01T17:01:37.702Z,50.53
2019-05-01T17:04:07.923Z,50.47
2019-05-01T17:06:38.459Z,48.70
2019-05-01T17:09:28.328Z,50.07
2019-05-01T17:11:56.936Z,50.67
2019-05-01T17:14:25.845Z,56.27
2019-05-01T17:16:54.798Z,48.93
2019-05-01T17:19:23.596Z,47.17
2019-05-01T17:21:52.303Z,47.43
2019-05-01T17:24:20.955Z,46.97
2019-05-01T17:26:49.672Z,47.63
2019-05-01T17:29:18.600Z,51.30
2019-05-01T17:31:47.231Z,48.57
2019-05-01T17:34:16.009Z,47.13
2019-05-01T17:36:44.499Z,45.47
2019-05-01T17:39:13.992Z,48.10
2019-05-01T17:41:42.624Z,45.47
2019-05-01T17:44:11.367Z,47.53
2019-05-01T17:46:41.956Z,49.23
2019-05-01T17:49:10.656Z,43.97
2019-05-01T17:51:42.659Z,46.43
2019-05-01T17:54:09.537Z,44.20
2019-05-01T17:56:38.152Z,43.67
2019-05-01T17:59:06.633Z,43.33
2019-05-01T18:01:48.705Z,41.90
2019-05-01T18:04:24.578Z,42.87
2019-05-01T18:06:53.157Z,42.80
2019-05-01T18:09:21.948Z,43.53
2019-05-01T18:11:52.323Z,42.50
2019-05-01T18:14:20.731Z,42.27
2019-05-01T18:16:49.443Z,41.97
2019-05-01T18:19:18.204Z,44.77
2019-05-01T18:21:51.916Z,42.00
2019-05-01T18:24:24.587Z,41.73
2019-05-01T18:26:55.133Z,43.70
2019-05-01T18:29:28.432Z,39.47
2019-05-01T18:31:57.412Z,40.70
2019-05-01T18:34:26.189Z,41.00
2019-05-01T18:37:11.651Z,39.50
2019-05-01T18:39:44.872Z,42.40
2019-05-01T18:42:15.191Z,38.13
2019-05-01T18:44:47.544Z,39.27
2019-05-01T18:47:14.515Z,39.17
2019-05-01T18:49:43.134Z,39.60
2019-05-01T18:52:12.613Z,38.20
2019-05-01T18:54:41.862Z,40.13
2019-05-01T18:57:10.696Z,39.73
2019-05-01T18:59:39.416Z,38.17
2019-05-01T19:02:08.157Z,39.63
2019-05-01T19:04:36.857Z,38.53
2019-05-01T19:07:05.548Z,40.00
2019-05-01T19:09:36.531Z,39.37
2019-05-01T19:12:06.031Z,37.60
2019-05-01T19:14:38.209Z,37.33
2019-05-01T19:17:06.782Z,36.13
2019-05-01T19:19:35.369Z,36.70
2019-05-01T19:22:05.117Z,37.80
2019-05-01T19:24:38.127Z,38.27
2019-05-01T19:27:04.214Z,38.87
2019-05-01T19:29:33.908Z,41.57
2019-05-01T19:32:02.740Z,38.17
2019-05-01T19:34:31.604Z,37.07
2019-05-01T19:37:00.287Z,36.37
2019-05-01T19:39:28.876Z,42.23
2019-05-01T19:41:57.552Z,38.07
2019-05-01T19:44:26.171Z,39.20
2019-05-01T19:46:54.811Z,37.23
2019-05-01T19:49:24.720Z,37.13
2019-05-01T19:51:58.364Z,35.53
2019-05-01T19:54:28.103Z,37.63
2019-05-01T19:56:54.364Z,35.60
2019-05-01T19:59:22.983Z,35.60
2019-05-01T20:01:51.574Z,35.20
2019-05-01T20:04:21.343Z,36.60
2019-05-01T20:06:50.252Z,35.40
2019-05-01T20:09:19.448Z,36.10
2019-05-01T20:11:48.046Z,38.40
2019-05-01T20:14:16.651Z,38.07
2019-05-01T20:16:45.267Z,37.57
2019-05-01T20:19:14.026Z,37.30
2019-05-01T20:21:42.552Z,38.53
2019-05-01T20:24:11.295Z,38.97
2019-05-01T20:26:39.867Z,37.00
2019-05-01T20:29:08.530Z,38.03
2019-05-01T20:31:37.155Z,39.00
2019-05-01T20:34:05.732Z,41.77
2019-05-01T20:36:34.639Z,39.90
2019-05-01T20:39:04.870Z,37.70
2019-05-01T20:41:33.406Z,41.00
2019-05-01T20:44:01.934Z,40.60
2019-05-01T20:46:30.646Z,40.43
2019-05-01T20:49:01.453Z,41.27
2019-05-01T20:51:29.351Z,39.00
2019-05-01T20:53:58.027Z,41.10
2019-05-01T20:56:37.130Z,38.87
2019-05-01T20:59:05.646Z,39.40
2019-05-01T21:01:34.295Z,40.03
2019-05-01T21:04:13.496Z,39.40
2019-05-01T21:06:45.377Z,39.43
2019-05-01T21:09:15.985Z,40.30
2019-05-01T21:11:49.458Z,40.47
2019-05-01T21:14:22.581Z,38.53
2019-05-01T21:16:48.473Z,39.63
2019-05-01T21:19:17.065Z,52.73
2019-05-01T21:21:45.631Z,42.03
2019-05-01T21:24:14.472Z,42.17
2019-05-01T21:26:43.441Z,40.20
2019-05-01T21:29:13.970Z,40.30
2019-05-01T21:31:44.123Z,42.77
2019-05-01T21:34:14.481Z,41.30
2019-05-01T21:36:47.638Z,43.83
2019-05-01T21:39:15.033Z,41.43
2019-05-01T21:41:43.651Z,45.57
2019-05-01T21:44:13.165Z,43.33
2019-05-01T21:46:43.159Z,48.07
2019-05-01T21:49:12.937Z,45.07
2019-05-01T21:51:45.918Z,44.10
2019-05-01T21:54:15.978Z,43.67
2019-05-01T21:56:42.869Z,43.30
2019-05-01T21:59:11.620Z,43.90
2019-05-01T22:01:40.304Z,44.30
2019-05-01T22:04:08.892Z,44.23
2019-05-01T22:06:38.778Z,46.27
2019-05-01T22:09:10.541Z,43.27
2019-05-01T22:11:39.840Z,45.00
2019-05-01T22:14:10.076Z,43.17
2019-05-01T22:16:38.655Z,42.77
2019-05-01T22:19:11.744Z,42.73
2019-05-01T22:21:47.818Z,41.97
2019-05-01T22:24:36.063Z,43.77
2019-05-01T22:27:08.730Z,45.00
2019-05-01T22:29:39.158Z,40.93
2019-05-01T22:32:15.323Z,44.50
2019-05-01T22:34:45.493Z,48.13
2019-05-01T22:37:14.298Z,44.73
2019-05-01T22:39:44.537Z,44.43
2019-05-01T22:42:13.254Z,43.17
2019-05-01T22:44:41.905Z,41.97
2019-05-01T22:47:15.031Z,43.10
2019-05-01T22:49:40.987Z,44.77
2019-05-01T22:52:09.588Z,43.23
2019-05-01T22:54:38.214Z,43.40
2019-05-01T22:57:06.671Z,42.80
2019-05-01T22:59:35.357Z,43.63
2019-05-01T23:02:05.615Z,46.37
2019-05-01T23:04:34.377Z,46.23
2019-05-01T23:07:02.986Z,44.00
2019-05-01T23:09:32.381Z,43.83
2019-05-01T23:12:01.002Z,43.20
2019-05-01T23:14:29.822Z,42.90
2019-05-01T23:17:06.124Z,44.83
2019-05-01T23:19:34.826Z,44.27
2019-05-01T23:22:03.348Z,41.87
2019-05-01T23:24:32.134Z,43.03
2019-05-01T23:27:00.823Z,44.57
2019-05-01T23:29:29.592Z,46.60
2019-05-01T23:31:58.599Z,45.27
2019-05-01T23:34:27.920Z,46.27
2019-05-01T23:36:57.183Z,43.70
2019-05-01T23:39:25.883Z,43.77
2019-05-01T23:41:54.476Z,43.37
2019-05-01T23:44:23.240Z,43.77
2019-05-01T23:46:51.838Z,47.07
2019-05-01T23:49:20.426Z,45.83
2019-05-01T23:51:49.212Z,44.70
2019-05-01T23:54:17.794Z,45.83
2019-05-01T23:56:46.314Z,44.13
2019-05-01T23:59:14.909Z,45.83
